createdAt,value
2022-12-20T00:00:12.753Z,3
2022-12-20T00:01:12.755Z,3
2022-12-20T00:02:12.857Z,3
2022-12-20T00:03:12.867Z,3
2022-12-20T00:04:12.766Z,3
2022-12-20T00:05:12.765Z,3
2022-12-20T00:06:12.852Z,3
2022-12-20T00:07:12.768Z,3
2022-12-20T00:08:12.763Z,3
2022-12-20T00:09:12.742Z,2
2022-12-20T00:10:12.747Z,3
2022-12-20T00:11:12.746Z,3
2022-12-20T00:12:12.775Z,3
2022-12-20T00:13:12.746Z,3
2022-12-20T00:14:12.778Z,3
2022-12-20T00:15:12.739Z,2
2022-12-20T00:16:12.757Z,2
2022-12-20T00:17:12.911Z,2
2022-12-20T00:18:12.825Z,3
2022-12-20T00:19:12.745Z,2
2022-12-20T00:20:12.769Z,2
2022-12-20T00:21:12.765Z,2
2022-12-20T00:22:12.761Z,3
2022-12-20T00:23:12.746Z,2
2022-12-20T00:24:12.739Z,3
2022-12-20T00:25:12.747Z,2
2022-12-20T00:26:12.742Z,3
2022-12-20T00:27:12.761Z,2
2022-12-20T00:28:12.751Z,2
2022-12-20T00:29:12.747Z,2
2022-12-20T00:30:12.754Z,2
2022-12-20T00:31:12.780Z,2
2022-12-20T00:32:12.750Z,3
2022-12-20T00:33:12.762Z,3
2022-12-20T00:34:12.753Z,2
2022-12-20T00:35:12.735Z,2
2022-12-20T00:36:12.753Z,2
2022-12-20T00:37:12.754Z,2
2022-12-20T00:38:12.753Z,2
2022-12-20T00:39:12.745Z,2
2022-12-20T00:40:12.745Z,2
2022-12-20T00:41:12.760Z,2
2022-12-20T00:42:12.758Z,2
2022-12-20T00:43:12.746Z,3
2022-12-20T00:44:12.755Z,2
2022-12-20T00:45:12.789Z,3
2022-12-20T00:46:12.759Z,2
2022-12-20T00:47:12.796Z,3
2022-12-20T00:48:12.826Z,2
2022-12-20T00:49:12.755Z,3
2022-12-20T00:50:12.747Z,2
2022-12-20T00:51:12.768Z,2
2022-12-20T00:52:12.756Z,2
2022-12-20T00:53:12.758Z,2
2022-12-20T00:54:12.749Z,2
2022-12-20T00:55:12.787Z,2
2022-12-20T00:56:12.760Z,2
2022-12-20T00:57:12.770Z,3
2022-12-20T00:58:12.762Z,3
2022-12-20T00:59:12.742Z,3
2022-12-20T01:00:12.782Z,3
2022-12-20T01:01:12.808Z,3
2022-12-20T01:02:12.952Z,3
2022-12-20T01:03:13.081Z,3
2022-12-20T01:04:12.746Z,3
2022-12-20T01:05:12.757Z,3
2022-12-20T01:06:12.758Z,3
2022-12-20T01:07:12.770Z,3
2022-12-20T01:08:12.743Z,4
2022-12-20T01:09:12.778Z,3
2022-12-20T01:10:12.746Z,3
2022-12-20T01:11:12.799Z,4
2022-12-20T01:12:12.778Z,3
2022-12-20T01:13:12.741Z,3
2022-12-20T01:14:12.747Z,4
2022-12-20T01:15:12.758Z,3
2022-12-20T01:16:12.803Z,3
2022-12-20T01:17:12.759Z,4
2022-12-20T01:18:12.747Z,3
2022-12-20T01:19:12.743Z,4
2022-12-20T01:20:12.740Z,4
2022-12-20T01:21:12.836Z,3
2022-12-20T01:22:12.765Z,3
2022-12-20T01:23:12.746Z,3
2022-12-20T01:24:12.742Z,4
2022-12-20T01:25:12.752Z,4
2022-12-20T01:26:12.771Z,3
2022-12-20T01:27:12.755Z,4
2022-12-20T01:28:12.780Z,3
2022-12-20T01:29:12.741Z,3
2022-12-20T01:30:12.742Z,3
2022-12-20T01:31:12.823Z,3
2022-12-20T01:32:12.938Z,4
2022-12-20T01:33:12.748Z,4
2022-12-20T01:34:13.880Z,4
2022-12-20T01:35:12.758Z,4
2022-12-20T01:36:12.758Z,4
2022-12-20T01:37:12.772Z,4
2022-12-20T01:38:12.762Z,4
2022-12-20T01:39:12.742Z,3
2022-12-20T01:40:12.743Z,3
2022-12-20T01:41:12.738Z,4
2022-12-20T01:42:12.765Z,3
2022-12-20T01:43:12.754Z,3
2022-12-20T01:44:12.747Z,4
2022-12-20T01:45:12.738Z,4
2022-12-20T01:46:12.863Z,3
2022-12-20T01:47:12.828Z,4
2022-12-20T01:48:12.757Z,4
2022-12-20T01:49:12.758Z,3
2022-12-20T01:50:12.748Z,4
2022-12-20T01:51:12.767Z,4
2022-12-20T01:52:12.758Z,3
2022-12-20T01:53:12.747Z,4
2022-12-20T01:54:12.735Z,4
2022-12-20T01:55:12.797Z,4
2022-12-20T01:56:12.747Z,4
2022-12-20T01:57:12.849Z,3
2022-12-20T01:58:12.762Z,3
2022-12-20T01:59:12.739Z,4
2022-12-20T02:00:12.761Z,4
2022-12-20T02:01:12.792Z,3
2022-12-20T02:02:13.085Z,3
2022-12-20T02:03:12.941Z,3
2022-12-20T02:04:12.760Z,4
2022-12-20T02:05:12.757Z,3
2022-12-20T02:06:12.773Z,4
2022-12-20T02:07:12.763Z,3
2022-12-20T02:08:12.769Z,3
2022-12-20T02:09:12.787Z,3
2022-12-20T02:10:12.751Z,4
2022-12-20T02:11:12.746Z,4
2022-12-20T02:12:12.777Z,3
2022-12-20T02:13:12.772Z,4
2022-12-20T02:14:12.745Z,4
2022-12-20T02:15:12.748Z,4
2022-12-20T02:16:12.861Z,4
2022-12-20T02:17:12.762Z,5
2022-12-20T02:18:12.795Z,4
2022-12-20T02:19:12.752Z,5
2022-12-20T02:20:12.755Z,5
2022-12-20T02:21:12.939Z,5
2022-12-20T02:22:12.793Z,6
2022-12-20T02:23:12.780Z,7
2022-12-20T02:24:12.749Z,7
2022-12-20T02:25:12.741Z,7
2022-12-20T02:26:12.791Z,7
2022-12-20T02:27:12.772Z,8
2022-12-20T02:28:12.766Z,5
2022-12-20T02:29:12.740Z,4
2022-12-20T02:30:12.747Z,4
2022-12-20T02:31:12.753Z,6
2022-12-20T02:32:12.888Z,8
2022-12-20T02:33:12.811Z,9
2022-12-20T02:34:12.768Z,10
2022-12-20T02:35:12.766Z,11
2022-12-20T02:36:12.765Z,10
2022-12-20T02:37:12.757Z,10
2022-12-20T02:38:12.750Z,9
2022-12-20T02:39:12.773Z,9
2022-12-20T02:40:12.736Z,9
2022-12-20T02:41:12.755Z,7
2022-12-20T02:42:12.767Z,5
2022-12-20T02:43:12.764Z,5
2022-12-20T02:44:12.751Z,4
2022-12-20T02:45:12.858Z,3
2022-12-20T02:46:12.821Z,3
2022-12-20T02:47:12.782Z,3
2022-12-20T02:48:12.741Z,3
2022-12-20T02:49:12.778Z,3
2022-12-20T02:50:12.767Z,3
2022-12-20T02:51:12.821Z,3
2022-12-20T02:52:12.770Z,3
2022-12-20T02:53:12.755Z,3
2022-12-20T02:54:12.751Z,3
2022-12-20T02:55:12.759Z,3
2022-12-20T02:56:12.754Z,3
2022-12-20T02:57:12.764Z,3
2022-12-20T02:58:12.743Z,3
2022-12-20T02:59:12.743Z,3
2022-12-20T03:00:12.747Z,3
2022-12-20T03:01:12.771Z,3
2022-12-20T03:02:12.985Z,3
2022-12-20T03:03:12.978Z,3
2022-12-20T03:04:12.753Z,3
2022-12-20T03:05:12.789Z,3
2022-12-20T03:06:12.770Z,3
2022-12-20T03:07:12.781Z,3
2022-12-20T03:08:12.772Z,3
2022-12-20T03:09:12.751Z,3
2022-12-20T03:10:12.744Z,3
2022-12-20T03:11:12.741Z,4
2022-12-20T03:12:12.754Z,3
2022-12-20T03:13:12.738Z,3
2022-12-20T03:14:12.746Z,3
2022-12-20T03:15:12.737Z,3
2022-12-20T03:16:12.771Z,3
2022-12-20T03:17:12.827Z,3
2022-12-20T03:18:12.750Z,3
2022-12-20T03:19:12.805Z,3
2022-12-20T03:20:12.779Z,3
2022-12-20T03:21:12.766Z,3
2022-12-20T03:22:12.783Z,3
2022-12-20T03:23:12.752Z,3
2022-12-20T03:24:12.750Z,3
2022-12-20T03:25:12.765Z,4
2022-12-20T03:26:12.762Z,4
2022-12-20T03:27:12.765Z,3
2022-12-20T03:28:12.757Z,3
2022-12-20T03:29:12.746Z,3
2022-12-20T03:30:12.765Z,4
2022-12-20T03:31:12.772Z,4
2022-12-20T03:32:12.780Z,4
2022-12-20T03:33:12.770Z,3
2022-12-20T03:34:12.756Z,4
2022-12-20T03:35:12.743Z,3
2022-12-20T03:36:12.760Z,3
2022-12-20T03:37:12.760Z,4
2022-12-20T03:38:12.739Z,4
2022-12-20T03:39:12.754Z,3
2022-12-20T03:40:12.901Z,4
2022-12-20T03:41:12.741Z,3
2022-12-20T03:42:12.770Z,4
2022-12-20T03:43:12.737Z,3
2022-12-20T03:44:12.846Z,3
2022-12-20T03:45:12.739Z,4
2022-12-20T03:46:12.766Z,4
2022-12-20T03:47:12.760Z,3
2022-12-20T03:48:12.754Z,4
2022-12-20T03:49:12.746Z,4
2022-12-20T03:50:12.768Z,4
2022-12-20T03:51:12.785Z,4
2022-12-20T03:52:12.755Z,3
2022-12-20T03:53:12.749Z,4
2022-12-20T03:54:12.742Z,4
2022-12-20T03:55:12.777Z,4
2022-12-20T03:56:12.746Z,4
2022-12-20T03:57:12.770Z,4
2022-12-20T03:58:12.760Z,4
2022-12-20T03:59:12.760Z,4
2022-12-20T04:00:12.804Z,4
2022-12-20T04:01:12.778Z,3
2022-12-20T04:02:12.914Z,4
2022-12-20T04:03:12.890Z,3
2022-12-20T04:04:12.754Z,3
2022-12-20T04:05:12.750Z,3
2022-12-20T04:06:12.763Z,3
2022-12-20T04:07:12.762Z,4
2022-12-20T04:08:12.776Z,3
2022-12-20T04:09:12.763Z,3
2022-12-20T04:10:12.763Z,4
2022-12-20T04:11:12.764Z,4
2022-12-20T04:12:12.762Z,3
2022-12-20T04:13:12.750Z,3
2022-12-20T04:14:12.735Z,3
2022-12-20T04:15:12.827Z,3
2022-12-20T04:16:12.760Z,3
2022-12-20T04:17:12.795Z,3
2022-12-20T04:18:12.757Z,3
2022-12-20T04:19:12.759Z,3
2022-12-20T04:20:12.753Z,3
2022-12-20T04:21:12.774Z,3
2022-12-20T04:22:12.832Z,3
2022-12-20T04:23:12.872Z,3
2022-12-20T04:24:12.755Z,3
2022-12-20T04:25:12.752Z,3
2022-12-20T04:26:12.754Z,3
2022-12-20T04:27:12.766Z,4
2022-12-20T04:28:12.753Z,4
2022-12-20T04:29:12.780Z,4
2022-12-20T04:30:12.765Z,4
2022-12-20T04:31:15.081Z,5
2022-12-20T04:32:12.760Z,5
2022-12-20T04:33:12.787Z,4
2022-12-20T04:34:12.765Z,4
2022-12-20T04:35:12.740Z,4
2022-12-20T04:36:12.764Z,4
2022-12-20T04:37:12.762Z,4
2022-12-20T04:38:12.744Z,4
2022-12-20T04:39:12.759Z,4
2022-12-20T04:40:12.774Z,3
2022-12-20T04:41:12.743Z,4
2022-12-20T04:42:12.756Z,4
2022-12-20T04:43:12.763Z,4
2022-12-20T04:44:12.758Z,4
2022-12-20T04:45:12.761Z,4
2022-12-20T04:46:12.851Z,5
2022-12-20T04:47:12.803Z,5
2022-12-20T04:49:12.800Z,5
2022-12-20T04:50:12.743Z,5
2022-12-20T04:51:26.867Z,5
2022-12-20T04:52:47.428Z,6
2022-12-20T04:53:55.081Z,5
2022-12-20T04:55:09.163Z,4
2022-12-20T04:56:04.758Z,5
2022-12-20T04:57:06.459Z,5
2022-12-20T04:57:43.504Z,4
2022-12-20T04:58:20.541Z,4
2022-12-20T04:59:12.762Z,4
2022-12-20T05:00:12.754Z,4
2022-12-20T05:01:12.832Z,4
2022-12-20T05:02:12.874Z,4
2022-12-20T05:03:13.042Z,4
2022-12-20T05:04:12.815Z,5
2022-12-20T05:05:12.756Z,8
2022-12-20T05:06:12.858Z,10
2022-12-20T05:07:12.768Z,10
2022-12-20T05:08:12.775Z,12
2022-12-20T05:09:12.750Z,12
2022-12-20T05:10:12.764Z,12
2022-12-20T05:11:12.747Z,10
2022-12-20T05:12:12.752Z,11
2022-12-20T05:13:12.798Z,9
2022-12-20T05:14:12.758Z,7
2022-12-20T05:15:12.768Z,6
2022-12-20T05:16:12.863Z,6
2022-12-20T05:17:12.750Z,7
2022-12-20T05:18:12.759Z,7
2022-12-20T05:19:12.762Z,8
2022-12-20T05:20:12.798Z,8
2022-12-20T05:21:12.764Z,8
2022-12-20T05:22:12.757Z,8
2022-12-20T05:23:12.763Z,9
2022-12-20T05:24:12.749Z,7
2022-12-20T05:25:12.748Z,8
2022-12-20T05:26:12.755Z,8
2022-12-20T05:27:12.746Z,8
2022-12-20T05:28:12.770Z,8
2022-12-20T05:29:12.756Z,8
2022-12-20T05:30:12.761Z,6
2022-12-20T05:31:12.812Z,7
2022-12-20T05:32:12.751Z,6
2022-12-20T05:33:13.055Z,7
2022-12-20T05:34:12.753Z,7
2022-12-20T05:35:12.750Z,7
2022-12-20T05:36:12.766Z,9
2022-12-20T05:37:12.748Z,9
2022-12-20T05:38:12.753Z,9
2022-12-20T05:39:12.911Z,10
2022-12-20T05:40:12.757Z,9
2022-12-20T05:41:12.820Z,8
2022-12-20T05:42:12.750Z,12
2022-12-20T05:43:12.782Z,12
2022-12-20T05:44:12.759Z,11
2022-12-20T05:45:12.753Z,13
2022-12-20T05:46:12.821Z,14
2022-12-20T05:47:12.841Z,11
2022-12-20T05:48:12.838Z,10
2022-12-20T05:49:12.751Z,7
2022-12-20T05:50:18.605Z,7
2022-12-20T05:51:12.767Z,5
2022-12-20T05:52:12.754Z,5
2022-12-20T05:53:12.765Z,5
2022-12-20T05:54:12.758Z,4
2022-12-20T05:55:12.828Z,5
2022-12-20T05:56:12.757Z,5
2022-12-20T05:57:12.779Z,4
2022-12-20T05:58:12.763Z,5
2022-12-20T05:59:12.744Z,4
2022-12-20T06:00:12.749Z,4
2022-12-20T06:01:12.782Z,4
2022-12-20T06:02:12.846Z,4
2022-12-20T06:03:13.025Z,4
2022-12-20T06:04:12.780Z,4
2022-12-20T06:05:12.830Z,4
2022-12-20T06:06:15.077Z,4
2022-12-20T06:07:12.748Z,4
2022-12-20T06:08:12.756Z,4
2022-12-20T06:09:12.773Z,4
2022-12-20T06:10:12.787Z,4
2022-12-20T06:11:12.791Z,4
2022-12-20T06:12:12.738Z,4
2022-12-20T06:13:12.769Z,5
2022-12-20T06:14:12.755Z,4
2022-12-20T06:15:12.758Z,4
2022-12-20T06:16:12.785Z,4
2022-12-20T06:17:12.759Z,4
2022-12-20T06:18:12.782Z,4
2022-12-20T06:19:19.258Z,4
2022-12-20T06:20:12.746Z,4
2022-12-20T06:21:12.777Z,4
2022-12-20T06:22:12.762Z,4
2022-12-20T06:23:12.787Z,4
2022-12-20T06:24:12.766Z,4
2022-12-20T06:25:12.751Z,4
2022-12-20T06:26:12.747Z,4
2022-12-20T06:27:12.775Z,5
2022-12-20T06:28:12.796Z,4
2022-12-20T06:29:12.763Z,4
2022-12-20T06:30:12.754Z,4
2022-12-20T06:31:12.882Z,4
2022-12-20T06:32:12.755Z,4
2022-12-20T06:33:12.760Z,4
2022-12-20T06:34:12.755Z,4
2022-12-20T06:35:12.770Z,4
2022-12-20T06:36:12.773Z,4
2022-12-20T06:37:12.809Z,4
2022-12-20T06:38:12.810Z,4
2022-12-20T06:39:12.744Z,4
2022-12-20T06:40:12.756Z,4
2022-12-20T06:41:12.775Z,4
2022-12-20T06:42:12.749Z,4
2022-12-20T06:43:12.776Z,4
2022-12-20T06:44:12.809Z,4
2022-12-20T06:45:12.764Z,4
2022-12-20T06:46:12.849Z,4
2022-12-20T06:47:12.772Z,4
2022-12-20T06:48:12.772Z,4
2022-12-20T06:49:12.766Z,4
2022-12-20T06:50:12.771Z,3
2022-12-20T06:51:12.803Z,3
2022-12-20T06:52:12.771Z,4
2022-12-20T06:53:12.767Z,4
2022-12-20T06:54:12.747Z,4
2022-12-20T06:55:12.743Z,4
2022-12-20T06:56:12.763Z,4
2022-12-20T06:57:12.768Z,4
2022-12-20T06:58:12.779Z,4
2022-12-20T06:59:12.745Z,4
2022-12-20T07:00:12.778Z,4
2022-12-20T07:01:12.832Z,3
2022-12-20T07:02:12.948Z,3
2022-12-20T07:03:12.920Z,3
2022-12-20T07:04:12.749Z,3
2022-12-20T07:05:12.818Z,4
2022-12-20T07:06:12.772Z,3
2022-12-20T07:07:12.773Z,3
2022-12-20T07:08:12.755Z,3
2022-12-20T07:09:12.968Z,3
2022-12-20T07:10:12.751Z,3
2022-12-20T07:11:12.769Z,3
2022-12-20T07:12:12.776Z,3
2022-12-20T07:13:12.786Z,3
2022-12-20T07:14:12.765Z,3
2022-12-20T07:15:12.753Z,3
2022-12-20T07:16:12.790Z,3
2022-12-20T07:17:12.827Z,3
2022-12-20T07:18:12.773Z,7
2022-12-20T07:19:12.787Z,9
2022-12-20T07:20:14.190Z,15
2022-12-20T07:21:12.782Z,36
2022-12-20T07:22:12.776Z,39
2022-12-20T07:23:12.757Z,28
2022-12-20T07:24:12.778Z,24
2022-12-20T07:25:12.772Z,10
2022-12-20T07:26:12.787Z,6
2022-12-20T07:27:12.749Z,4
2022-12-20T07:28:12.769Z,4
2022-12-20T07:29:15.702Z,6
2022-12-20T07:30:12.754Z,6
2022-12-20T07:31:12.763Z,4
2022-12-20T07:32:12.857Z,6
2022-12-20T07:33:12.763Z,5
2022-12-20T07:34:12.781Z,8
2022-12-20T07:35:12.757Z,7
2022-12-20T07:36:12.776Z,8
2022-12-20T07:37:12.767Z,5
2022-12-20T07:38:12.776Z,5
2022-12-20T07:39:12.743Z,4
2022-12-20T07:40:12.761Z,4
2022-12-20T07:41:12.777Z,4
2022-12-20T07:42:12.861Z,4
2022-12-20T07:43:12.793Z,5
2022-12-20T07:44:12.773Z,4
2022-12-20T07:45:12.741Z,4
2022-12-20T07:46:12.809Z,5
2022-12-20T07:47:12.752Z,5
2022-12-20T07:48:16.351Z,4
2022-12-20T07:49:12.780Z,4
2022-12-20T07:50:12.755Z,4
2022-12-20T07:51:12.749Z,5
2022-12-20T07:52:12.823Z,5
2022-12-20T07:53:12.770Z,5
2022-12-20T07:54:12.760Z,4
2022-12-20T07:55:12.745Z,6
2022-12-20T07:56:12.756Z,5
2022-12-20T07:57:12.785Z,8
2022-12-20T07:58:12.761Z,5
2022-12-20T07:59:12.783Z,4
2022-12-20T08:00:12.750Z,5
2022-12-20T08:01:12.800Z,5
2022-12-20T08:02:12.971Z,5
2022-12-20T08:03:12.906Z,4
2022-12-20T08:04:12.790Z,4
2022-12-20T08:05:12.998Z,5
2022-12-20T08:06:12.922Z,4
2022-12-20T08:07:12.876Z,4
2022-12-20T08:08:13.003Z,4
2022-12-20T08:09:12.849Z,4
2022-12-20T08:10:12.746Z,4
2022-12-20T08:11:12.758Z,4
2022-12-20T08:12:12.763Z,4
2022-12-20T08:13:12.794Z,4
2022-12-20T08:14:12.784Z,4
2022-12-20T08:15:12.763Z,4
2022-12-20T08:16:12.826Z,4
2022-12-20T08:17:12.844Z,4
2022-12-20T08:18:12.778Z,4
2022-12-20T08:19:12.750Z,4
2022-12-20T08:20:12.756Z,4
2022-12-20T08:21:12.760Z,4
2022-12-20T08:22:12.772Z,4
2022-12-20T08:23:12.762Z,4
2022-12-20T08:24:12.747Z,4
2022-12-20T08:25:12.769Z,4
2022-12-20T08:26:12.781Z,4
2022-12-20T08:27:12.754Z,4
2022-12-20T08:28:12.773Z,4
2022-12-20T08:29:12.758Z,4
2022-12-20T08:30:12.767Z,4
2022-12-20T08:31:12.898Z,4
2022-12-20T08:32:12.821Z,4
2022-12-20T08:33:12.780Z,4
2022-12-20T08:34:12.771Z,4
2022-12-20T08:35:12.757Z,4
2022-12-20T08:36:12.785Z,4
2022-12-20T08:37:15.165Z,4
2022-12-20T08:38:12.788Z,4
2022-12-20T08:39:12.762Z,4
2022-12-20T08:40:12.763Z,4
2022-12-20T08:41:12.767Z,4
2022-12-20T08:42:12.799Z,4
2022-12-20T08:43:12.781Z,4
2022-12-20T08:44:12.760Z,4
2022-12-20T08:45:12.807Z,4
2022-12-20T08:46:12.971Z,4
2022-12-20T08:47:12.751Z,4
2022-12-20T08:48:12.764Z,4
2022-12-20T08:49:12.753Z,4
2022-12-20T08:50:12.782Z,3
2022-12-20T08:51:12.841Z,3
2022-12-20T08:52:12.776Z,3
2022-12-20T08:53:12.798Z,4
2022-12-20T08:54:12.758Z,6
2022-12-20T08:55:13.317Z,5
2022-12-20T08:56:12.751Z,4
2022-12-20T08:57:12.753Z,3
2022-12-20T08:58:12.761Z,3
2022-12-20T08:59:12.755Z,3
2022-12-20T09:00:12.766Z,4
2022-12-20T09:01:12.825Z,4
2022-12-20T09:02:13.084Z,3
2022-12-20T09:03:12.895Z,3
2022-12-20T09:04:12.742Z,4
2022-12-20T09:05:12.767Z,4
2022-12-20T09:06:12.758Z,4
2022-12-20T09:07:12.848Z,3
2022-12-20T09:08:12.808Z,3
2022-12-20T09:09:12.767Z,3
2022-12-20T09:10:12.750Z,4
2022-12-20T09:11:12.762Z,5
2022-12-20T09:12:12.753Z,5
2022-12-20T09:13:12.790Z,5
2022-12-20T09:14:12.780Z,6
2022-12-20T09:16:12.983Z,4
2022-12-20T09:17:12.774Z,4
2022-12-20T09:18:12.771Z,3
2022-12-20T09:19:12.789Z,4
2022-12-20T09:20:12.749Z,3
2022-12-20T09:21:12.839Z,3
2022-12-20T09:22:12.789Z,4
2022-12-20T09:23:12.770Z,3
2022-12-20T09:24:12.750Z,3
2022-12-20T09:25:12.773Z,4
2022-12-20T09:26:12.773Z,3
2022-12-20T09:27:12.763Z,3
2022-12-20T09:28:12.766Z,3
2022-12-20T09:29:12.769Z,3
2022-12-20T09:30:12.755Z,3
2022-12-20T09:31:12.860Z,3
2022-12-20T09:32:12.751Z,3
2022-12-20T09:33:12.753Z,3
2022-12-20T09:34:12.768Z,3
2022-12-20T09:35:16.604Z,3
2022-12-20T09:36:12.767Z,3
2022-12-20T09:37:12.797Z,3
2022-12-20T09:38:12.784Z,3
2022-12-20T09:39:12.773Z,3
2022-12-20T09:40:12.768Z,3
2022-12-20T09:41:16.447Z,3
2022-12-20T09:42:12.757Z,3
2022-12-20T09:43:12.793Z,4
2022-12-20T09:44:12.792Z,3
2022-12-20T09:45:12.785Z,4
2022-12-20T09:46:12.776Z,3
2022-12-20T09:47:12.856Z,4
2022-12-20T09:48:12.762Z,4
2022-12-20T09:49:12.782Z,4
2022-12-20T09:50:12.757Z,4
2022-12-20T09:51:12.759Z,4
2022-12-20T09:52:12.758Z,4
2022-12-20T09:53:18.128Z,5
2022-12-20T09:54:12.759Z,4
2022-12-20T09:55:12.772Z,5
2022-12-20T09:56:12.767Z,5
2022-12-20T09:57:12.759Z,5
2022-12-20T09:58:12.817Z,4
2022-12-20T09:59:12.776Z,5
2022-12-20T10:00:12.762Z,6
2022-12-20T10:01:15.306Z,4
2022-12-20T10:02:44.493Z,5
2022-12-20T10:03:13.036Z,4
2022-12-20T10:04:12.953Z,4
2022-12-20T10:05:12.970Z,4
2022-12-20T10:06:12.780Z,5
2022-12-20T10:07:12.766Z,5
2022-12-20T10:08:12.796Z,6
2022-12-20T10:09:12.752Z,7
2022-12-20T10:10:12.762Z,7
2022-12-20T10:11:12.763Z,6
2022-12-20T10:12:12.764Z,6
2022-12-20T10:13:12.800Z,6
2022-12-20T10:14:12.756Z,6
2022-12-20T10:15:12.749Z,5
2022-12-20T10:16:12.826Z,6
2022-12-20T10:17:12.753Z,5
2022-12-20T10:18:12.837Z,8
2022-12-20T10:19:12.770Z,10
2022-12-20T10:20:12.773Z,9
2022-12-20T10:21:12.764Z,9
2022-12-20T10:22:12.772Z,8
2022-12-20T10:23:12.799Z,7
2022-12-20T10:24:12.766Z,7
2022-12-20T10:25:12.890Z,5
2022-12-20T10:26:12.892Z,6
2022-12-20T10:27:12.798Z,7
2022-12-20T10:28:12.777Z,7
2022-12-20T10:29:12.775Z,11
2022-12-20T10:30:12.761Z,13
2022-12-20T10:31:12.851Z,9
2022-12-20T10:32:12.776Z,9
2022-12-20T10:33:12.775Z,9
2022-12-20T10:34:12.772Z,11
2022-12-20T10:35:12.758Z,11
2022-12-20T10:36:12.755Z,15
2022-12-20T10:37:12.776Z,15
2022-12-20T10:38:12.908Z,9
2022-12-20T10:39:12.759Z,12
2022-12-20T10:40:12.750Z,14
2022-12-20T10:41:21.915Z,13
2022-12-20T10:42:12.757Z,14
2022-12-20T10:43:12.818Z,12
2022-12-20T10:44:12.835Z,14
2022-12-20T10:45:12.820Z,15
2022-12-20T10:46:12.791Z,16
2022-12-20T10:47:12.752Z,14
2022-12-20T10:48:12.772Z,17
2022-12-20T10:49:12.794Z,15
2022-12-20T10:50:12.749Z,15
2022-12-20T10:51:16.297Z,19
2022-12-20T10:52:12.790Z,16
2022-12-20T10:53:12.803Z,14
2022-12-20T10:54:12.764Z,15
2022-12-20T10:55:12.820Z,15
2022-12-20T10:56:12.794Z,16
2022-12-20T10:57:14.840Z,21
2022-12-20T10:58:12.985Z,16
2022-12-20T10:59:12.791Z,14
2022-12-20T11:00:12.944Z,14
2022-12-20T11:01:12.870Z,13
2022-12-20T11:02:12.911Z,11
2022-12-20T11:03:12.992Z,13
2022-12-20T11:04:12.802Z,13
2022-12-20T11:05:12.902Z,9
2022-12-20T11:06:12.751Z,8
2022-12-20T11:07:12.752Z,9
2022-12-20T11:09:12.821Z,10
2022-12-20T11:10:12.754Z,18
2022-12-20T11:11:12.762Z,21
2022-12-20T11:12:12.766Z,17
2022-12-20T11:13:12.762Z,13
2022-12-20T11:14:12.777Z,11
2022-12-20T11:15:12.802Z,13
2022-12-20T11:16:12.820Z,11
2022-12-20T11:17:12.771Z,9
2022-12-20T11:18:12.754Z,7
2022-12-20T11:19:12.769Z,7
2022-12-20T11:20:12.797Z,7
2022-12-20T11:21:16.649Z,5
2022-12-20T11:22:12.784Z,5
2022-12-20T11:23:12.791Z,5
2022-12-20T11:24:12.760Z,11
2022-12-20T11:25:12.780Z,17
2022-12-20T11:26:12.759Z,20
2022-12-20T11:27:15.658Z,17
2022-12-20T11:28:12.760Z,14
2022-12-20T11:29:12.780Z,15
2022-12-20T11:30:12.755Z,14
2022-12-20T11:31:12.850Z,13
2022-12-20T11:32:12.773Z,13
2022-12-20T11:33:12.814Z,12
2022-12-20T11:34:12.788Z,12
2022-12-20T11:35:12.817Z,11
2022-12-20T11:36:12.827Z,10
2022-12-20T11:37:12.774Z,9
2022-12-20T11:38:12.786Z,7
2022-12-20T11:39:12.782Z,7
2022-12-20T11:41:12.760Z,5
2022-12-20T11:42:12.756Z,6
2022-12-20T11:43:12.765Z,5
2022-12-20T11:44:25.314Z,6
2022-12-20T11:45:12.752Z,6
2022-12-20T11:46:12.766Z,6
2022-12-20T11:47:12.856Z,8
2022-12-20T11:48:12.762Z,8
2022-12-20T11:49:12.841Z,7
2022-12-20T11:50:12.814Z,5
2022-12-20T11:51:16.104Z,7
2022-12-20T11:52:12.765Z,6
2022-12-20T11:53:12.840Z,5
2022-12-20T11:54:12.789Z,3
2022-12-20T11:55:12.758Z,3
2022-12-20T11:56:13.051Z,4
2022-12-20T11:57:12.771Z,3
2022-12-20T11:58:20.691Z,4
2022-12-20T11:59:12.796Z,3
2022-12-20T12:00:12.754Z,3
2022-12-20T12:01:12.776Z,3
2022-12-20T12:02:12.935Z,4
2022-12-20T12:03:12.817Z,4
2022-12-20T12:04:12.787Z,4
2022-12-20T12:05:12.822Z,4
2022-12-20T12:06:12.765Z,4
2022-12-20T12:07:12.775Z,4
2022-12-20T12:08:18.011Z,4
2022-12-20T12:09:12.821Z,4
2022-12-20T12:10:12.764Z,5
2022-12-20T12:11:39.977Z,6
2022-12-20T12:12:12.750Z,7
2022-12-20T12:13:12.848Z,5
2022-12-20T12:14:12.794Z,5
2022-12-20T12:15:16.091Z,4
2022-12-20T12:16:12.829Z,4
2022-12-20T12:17:12.756Z,4
2022-12-20T12:18:12.780Z,3
2022-12-20T12:19:12.905Z,3
2022-12-20T12:20:12.792Z,3
2022-12-20T12:21:12.771Z,3
2022-12-20T12:22:12.821Z,3
2022-12-20T12:23:12.784Z,3
2022-12-20T12:24:12.792Z,4
2022-12-20T12:25:12.839Z,3
2022-12-20T12:26:12.768Z,4
2022-12-20T12:27:16.142Z,4
2022-12-20T12:28:12.760Z,4
2022-12-20T12:29:12.856Z,4
2022-12-20T12:30:12.776Z,4
2022-12-20T12:31:12.798Z,6
2022-12-20T12:32:12.829Z,10
2022-12-20T12:33:12.762Z,9
2022-12-20T12:34:12.770Z,8
2022-12-20T12:35:12.770Z,7
2022-12-20T12:36:12.758Z,6
2022-12-20T12:37:12.792Z,5
2022-12-20T12:38:12.758Z,4
2022-12-20T12:39:12.926Z,6
2022-12-20T12:40:12.776Z,6
2022-12-20T12:41:12.778Z,8
2022-12-20T12:42:12.768Z,5
2022-12-20T12:43:12.784Z,4
2022-12-20T12:44:12.789Z,4
2022-12-20T12:45:12.759Z,4
2022-12-20T12:46:14.667Z,4
2022-12-20T12:47:12.768Z,4
2022-12-20T12:48:12.762Z,3
2022-12-20T12:49:12.775Z,3
2022-12-20T12:50:12.766Z,3
2022-12-20T12:51:12.768Z,3
2022-12-20T12:52:12.774Z,3
2022-12-20T12:53:12.853Z,4
2022-12-20T12:54:12.803Z,4
2022-12-20T12:55:12.783Z,4
2022-12-20T12:56:42.184Z,3
2022-12-20T12:57:12.785Z,3
2022-12-20T12:58:12.793Z,3
2022-12-20T12:59:12.781Z,2
2022-12-20T13:00:12.781Z,3
2022-12-20T13:01:12.809Z,3
2022-12-20T13:02:12.877Z,4
2022-12-20T13:03:12.843Z,4
2022-12-20T13:04:12.811Z,3
2022-12-20T13:05:12.765Z,3
2022-12-20T13:06:12.766Z,3
2022-12-20T13:07:12.795Z,3
2022-12-20T13:08:12.766Z,3
2022-12-20T13:09:12.794Z,3
2022-12-20T13:10:12.787Z,3
2022-12-20T13:11:12.767Z,3
2022-12-20T13:12:12.764Z,3
2022-12-20T13:13:12.768Z,3
2022-12-20T13:14:12.860Z,3
2022-12-20T13:15:12.767Z,3
2022-12-20T13:16:12.829Z,3
2022-12-20T13:17:15.442Z,3
2022-12-20T13:18:12.867Z,3
2022-12-20T13:19:12.792Z,4
2022-12-20T13:20:12.773Z,5
2022-12-20T13:21:12.821Z,5
2022-12-20T13:22:12.767Z,5
2022-12-20T13:23:12.920Z,7
2022-12-20T13:24:12.858Z,6
2022-12-20T13:25:12.769Z,5
2022-12-20T13:26:12.760Z,5
2022-12-20T13:27:12.784Z,7
2022-12-20T13:28:12.789Z,6
2022-12-20T13:29:12.782Z,7
2022-12-20T13:30:12.826Z,6
2022-12-20T13:31:12.817Z,7
2022-12-20T13:32:12.765Z,6
2022-12-20T13:33:12.765Z,8
2022-12-20T13:34:12.817Z,12
2022-12-20T13:35:12.772Z,9
2022-12-20T13:36:12.764Z,9
2022-12-20T13:37:12.778Z,13
2022-12-20T13:38:12.794Z,14
2022-12-20T13:39:12.783Z,13
2022-12-20T13:40:12.775Z,12
2022-12-20T13:41:12.771Z,11
2022-12-20T13:42:12.782Z,10
2022-12-20T13:43:12.761Z,8
2022-12-20T13:44:12.807Z,7
2022-12-20T13:45:12.755Z,9
2022-12-20T13:46:12.874Z,20
2022-12-20T13:47:12.758Z,17
2022-12-20T13:48:12.768Z,13
2022-12-20T13:49:12.806Z,7
2022-12-20T13:50:12.780Z,9
2022-12-20T13:51:12.763Z,17
2022-12-20T13:52:12.800Z,18
2022-12-20T13:53:12.772Z,18
2022-12-20T13:54:12.791Z,17
2022-12-20T13:55:12.825Z,17
2022-12-20T13:56:12.840Z,23
2022-12-20T13:57:12.774Z,20
2022-12-20T13:58:12.794Z,20
2022-12-20T13:59:12.817Z,18
2022-12-20T14:00:12.887Z,9
2022-12-20T14:01:12.805Z,9
2022-12-20T14:02:12.982Z,11
2022-12-20T14:03:12.908Z,10
2022-12-20T14:05:12.780Z,9
2022-12-20T14:06:12.770Z,8
2022-12-20T14:07:12.774Z,7
2022-12-20T14:08:12.766Z,8
2022-12-20T14:09:12.809Z,12
2022-12-20T14:10:12.804Z,11
2022-12-20T14:11:12.783Z,15
2022-12-20T14:12:12.766Z,15
2022-12-20T14:13:12.769Z,13
2022-12-20T14:14:12.789Z,13
2022-12-20T14:15:12.791Z,11
2022-12-20T14:16:12.844Z,13
2022-12-20T14:17:12.849Z,14
2022-12-20T14:18:12.794Z,15
2022-12-20T14:19:12.766Z,13
2022-12-20T14:20:12.806Z,10
2022-12-20T14:21:12.774Z,11
2022-12-20T14:22:12.774Z,9
2022-12-20T14:23:12.765Z,9
2022-12-20T14:24:12.865Z,8
2022-12-20T14:25:12.787Z,6
2022-12-20T14:26:12.799Z,6
2022-12-20T14:27:12.802Z,5
2022-12-20T14:28:12.773Z,6
2022-12-20T14:29:12.789Z,9
2022-12-20T14:30:12.784Z,10
2022-12-20T14:31:12.817Z,13
2022-12-20T14:32:12.780Z,10
2022-12-20T14:33:12.771Z,10
2022-12-20T14:34:12.781Z,11
2022-12-20T14:35:12.777Z,9
2022-12-20T14:36:12.779Z,12
2022-12-20T14:37:12.772Z,11
2022-12-20T14:38:12.770Z,12
2022-12-20T14:39:12.778Z,12
2022-12-20T14:40:12.779Z,25
2022-12-20T14:41:12.772Z,27
2022-12-20T14:42:12.794Z,28
2022-12-20T14:43:12.772Z,29
2022-12-20T14:44:12.775Z,26
2022-12-20T14:45:12.769Z,23
2022-12-20T14:46:12.797Z,20
2022-12-20T14:47:12.790Z,13